createdAt,value
2023-02-03T00:01:23.057Z,10.90
2023-02-03T00:03:49.539Z,10.91
2023-02-03T00:06:16.028Z,10.92
2023-02-03T00:08:42.680Z,10.92
2023-02-03T00:11:09.127Z,10.93
2023-02-03T00:13:36.261Z,10.94
2023-02-03T00:16:02.835Z,10.95
2023-02-03T00:18:29.322Z,10.96
2023-02-03T00:20:55.702Z,10.96
2023-02-03T00:23:22.107Z,10.96
2023-02-03T00:25:48.516Z,10.98
2023-02-03T00:28:15.162Z,10.98
2023-02-03T00:30:41.624Z,10.98
2023-02-03T00:33:08.020Z,10.98
2023-02-03T00:35:37.885Z,10.98
2023-02-03T00:38:04.299Z,10.97
2023-02-03T00:40:30.812Z,10.98
2023-02-03T00:42:57.339Z,10.99
2023-02-03T00:45:23.768Z,10.99
2023-02-03T00:47:50.165Z,10.98
2023-02-03T00:50:16.848Z,10.99
2023-02-03T00:52:43.242Z,10.99
2023-02-03T00:55:09.814Z,11.00
2023-02-03T00:57:36.252Z,11.01
2023-02-03T01:00:04.418Z,11.02
2023-02-03T01:02:30.840Z,11.02
2023-02-03T01:04:57.220Z,11.03
2023-02-03T01:07:24.435Z,11.04
2023-02-03T01:09:50.879Z,11.03
2023-02-03T01:12:17.261Z,11.05
2023-02-03T01:14:43.595Z,11.03
2023-02-03T01:17:10.023Z,11.04
2023-02-03T01:19:36.374Z,11.05
2023-02-03T01:22:02.773Z,11.06
2023-02-03T01:24:30.644Z,11.06
2023-02-03T01:26:57.174Z,11.07
2023-02-03T01:29:23.622Z,11.07
2023-02-03T01:31:50.157Z,11.07
2023-02-03T01:34:18.585Z,11.08
2023-02-03T01:36:46.752Z,11.08
2023-02-03T01:39:13.474Z,11.08
2023-02-03T01:41:41.040Z,11.09
2023-02-03T01:44:38.571Z,11.10
2023-02-03T01:47:13.411Z,11.12
2023-02-03T01:49:44.644Z,11.11
2023-02-03T01:52:11.621Z,11.10
2023-02-03T01:54:43.883Z,11.12
2023-02-03T01:57:21.606Z,11.12
2023-02-03T01:59:49.707Z,11.11
2023-02-03T02:02:16.178Z,11.12
2023-02-03T02:05:14.531Z,11.12
2023-02-03T02:07:42.603Z,11.11
2023-02-03T02:10:09.643Z,11.11
2023-02-03T02:12:35.998Z,11.11
2023-02-03T02:15:02.955Z,11.10
2023-02-03T02:17:54.312Z,11.12
2023-02-03T02:20:54.375Z,11.11
2023-02-03T02:23:41.615Z,11.11
2023-02-03T02:26:38.608Z,11.12
2023-02-03T02:29:43.610Z,11.12
2023-02-03T02:32:20.724Z,11.11
2023-02-03T02:34:58.168Z,11.11
2023-02-03T02:37:37.592Z,11.11
2023-02-03T02:40:24.597Z,11.10
2023-02-03T02:43:00.365Z,11.10
2023-02-03T02:45:31.293Z,11.09
2023-02-03T02:48:07.773Z,11.09
2023-02-03T02:50:41.182Z,11.08
2023-02-03T02:53:09.916Z,11.08
2023-02-03T02:55:40.011Z,11.07
2023-02-03T02:58:09.599Z,11.08
2023-02-03T03:00:37.049Z,11.07
2023-02-03T03:03:14.647Z,11.09
2023-02-03T03:05:43.380Z,11.08
2023-02-03T03:08:12.206Z,11.08
2023-02-03T03:10:40.715Z,11.08
2023-02-03T03:13:12.754Z,11.08
2023-02-03T03:15:41.203Z,11.07
2023-02-03T03:18:19.947Z,11.09
2023-02-03T03:20:48.128Z,11.08
2023-02-03T03:23:22.523Z,11.08
2023-02-03T03:26:00.721Z,11.09
2023-02-03T03:28:42.679Z,11.10
2023-02-03T03:31:09.144Z,11.09
2023-02-03T03:33:35.667Z,11.09
2023-02-03T03:36:22.483Z,11.09
2023-02-03T03:39:19.984Z,11.09
2023-02-03T03:42:12.440Z,11.11
2023-02-03T03:44:52.707Z,11.10
2023-02-03T03:47:35.345Z,11.12
2023-02-03T03:50:05.983Z,11.11
2023-02-03T03:52:35.759Z,11.11
2023-02-03T03:55:06.285Z,11.10
2023-02-03T03:57:45.087Z,11.11
2023-02-03T04:00:15.788Z,11.10
2023-02-03T04:02:46.473Z,11.11
2023-02-03T04:05:14.165Z,11.10
2023-02-03T04:07:45.302Z,11.10
2023-02-03T04:10:24.663Z,11.12
2023-02-03T04:12:51.103Z,11.11
2023-02-03T04:15:17.463Z,11.11
2023-02-03T04:17:43.835Z,11.11
2023-02-03T04:20:10.938Z,11.12
2023-02-03T04:22:37.264Z,11.12
2023-02-03T04:25:03.934Z,11.13
2023-02-03T04:27:30.309Z,11.13
2023-02-03T04:29:56.659Z,11.14
2023-02-03T04:32:23.076Z,11.13
2023-02-03T04:34:49.445Z,11.13
2023-02-03T04:37:15.835Z,11.13
2023-02-03T04:39:42.195Z,11.13
2023-02-03T04:42:08.552Z,11.13
2023-02-03T04:44:34.914Z,11.13
2023-02-03T04:47:01.280Z,11.13
2023-02-03T04:49:27.667Z,11.13
2023-02-03T04:51:54.000Z,11.13
2023-02-03T04:54:20.331Z,11.13
2023-02-03T04:56:46.705Z,11.13
2023-02-03T04:59:13.036Z,11.13
2023-02-03T05:01:39.421Z,11.13
2023-02-03T05:04:05.853Z,11.14
2023-02-03T05:06:33.387Z,11.14
2023-02-03T05:08:59.825Z,11.16
2023-02-03T05:11:26.791Z,11.16
2023-02-03T05:13:53.508Z,11.16
2023-02-03T05:16:20.195Z,11.16
2023-02-03T05:18:46.585Z,11.16
2023-02-03T05:21:12.996Z,11.17
2023-02-03T05:23:39.423Z,11.15
2023-02-03T05:26:06.018Z,11.16
2023-02-03T05:28:32.508Z,11.17
2023-02-03T05:30:59.940Z,11.17
2023-02-03T05:33:26.423Z,11.19
2023-02-03T05:35:52.945Z,11.21
2023-02-03T05:38:19.597Z,11.21
2023-02-03T05:41:07.964Z,11.24
2023-02-03T05:43:34.720Z,11.23
2023-02-03T05:46:02.661Z,11.22
2023-02-03T05:48:29.193Z,11.21
2023-02-03T05:50:55.932Z,11.21
2023-02-03T05:53:22.896Z,11.20
2023-02-03T05:55:49.324Z,11.18
2023-02-03T05:58:15.977Z,11.18
2023-02-03T06:00:42.527Z,11.16
2023-02-03T06:03:08.983Z,11.16
2023-02-03T06:05:35.583Z,11.14
2023-02-03T06:08:01.989Z,11.13
2023-02-03T06:10:28.786Z,11.12
2023-02-03T06:12:55.470Z,11.11
2023-02-03T06:15:21.940Z,11.10
2023-02-03T06:17:49.035Z,11.08
2023-02-03T06:20:17.655Z,11.08
2023-02-03T06:22:44.198Z,11.09
2023-02-03T06:25:13.113Z,11.07
2023-02-03T06:27:40.169Z,11.06
2023-02-03T06:30:07.135Z,11.06
2023-02-03T06:32:33.610Z,11.05
2023-02-03T06:35:00.066Z,11.05
2023-02-03T06:37:26.580Z,11.04
2023-02-03T06:39:52.931Z,11.05
2023-02-03T06:42:19.307Z,11.06
2023-02-03T06:44:45.695Z,11.07
2023-02-03T06:47:12.030Z,11.08
2023-02-03T06:49:38.461Z,11.09
2023-02-03T06:52:04.983Z,11.10
2023-02-03T06:54:31.336Z,11.12
2023-02-03T06:56:57.741Z,11.12
2023-02-03T06:59:24.218Z,11.14
2023-02-03T07:01:50.943Z,11.16
2023-02-03T07:04:17.476Z,11.16
2023-02-03T07:06:43.804Z,11.19
2023-02-03T07:09:10.242Z,11.19
2023-02-03T07:11:36.651Z,11.20
2023-02-03T07:14:03.286Z,11.23
2023-02-03T07:16:29.746Z,11.24
2023-02-03T07:18:56.191Z,11.26
2023-02-03T07:21:22.661Z,11.26
2023-02-03T07:23:49.801Z,11.27
2023-02-03T07:26:17.753Z,11.28
2023-02-03T07:28:44.864Z,11.31
2023-02-03T07:31:11.571Z,11.29
2023-02-03T07:33:39.211Z,11.28
2023-02-03T07:36:07.230Z,11.27
2023-02-03T07:38:33.599Z,11.25
2023-02-03T07:41:00.038Z,11.22
2023-02-03T07:43:26.466Z,11.20
2023-02-03T07:45:52.821Z,11.17
2023-02-03T07:48:20.509Z,11.14
2023-02-03T07:50:48.524Z,11.12
2023-02-03T07:53:15.822Z,11.09
2023-02-03T07:55:42.442Z,11.06
2023-02-03T07:58:08.837Z,11.03
2023-02-03T08:00:35.899Z,11.02
2023-02-03T08:03:02.332Z,11.01
2023-02-03T08:05:30.295Z,11.01
2023-02-03T08:07:57.572Z,11.01
2023-02-03T08:10:23.979Z,11.01
2023-02-03T08:12:53.403Z,11.03
2023-02-03T08:15:20.108Z,11.03
2023-02-03T08:17:46.555Z,11.05
2023-02-03T08:20:12.997Z,11.06
2023-02-03T08:22:39.426Z,11.06
2023-02-03T08:25:06.381Z,11.08
2023-02-03T08:27:33.060Z,11.09
2023-02-03T08:29:59.575Z,11.13
2023-02-03T08:32:26.729Z,11.15
2023-02-03T08:34:53.860Z,11.18
2023-02-03T08:37:24.334Z,11.21
2023-02-03T08:39:51.875Z,11.23
2023-02-03T08:42:19.205Z,11.26
2023-02-03T08:44:45.743Z,11.28
2023-02-03T08:47:12.294Z,11.30
2023-02-03T08:49:42.091Z,11.33
2023-02-03T08:52:12.162Z,11.36
2023-02-03T08:54:39.359Z,11.37
2023-02-03T08:57:06.292Z,11.36
2023-02-03T08:59:36.060Z,11.37
2023-02-03T09:02:16.714Z,11.38
2023-02-03T09:04:43.798Z,11.40
2023-02-03T09:07:11.125Z,11.41
2023-02-03T09:09:37.634Z,11.41
2023-02-03T09:12:06.713Z,11.45
2023-02-03T09:14:33.559Z,11.43
2023-02-03T09:17:01.751Z,11.46
2023-02-03T09:19:28.105Z,11.49
2023-02-03T09:21:54.521Z,11.51
2023-02-03T09:24:22.180Z,11.53
2023-02-03T09:26:48.679Z,11.57
2023-02-03T09:29:15.254Z,11.59
2023-02-03T09:31:41.838Z,11.61
2023-02-03T09:34:08.472Z,11.64
2023-02-03T09:36:34.966Z,11.66
2023-02-03T09:39:01.514Z,11.68
2023-02-03T09:41:33.887Z,11.70
2023-02-03T09:44:29.593Z,11.73
2023-02-03T09:47:01.051Z,11.74
2023-02-03T09:49:38.539Z,11.77
2023-02-03T09:52:15.437Z,11.77
2023-02-03T09:55:14.114Z,11.78
2023-02-03T09:57:45.691Z,11.79
2023-02-03T10:00:21.907Z,11.77
2023-02-03T10:03:07.020Z,11.77
2023-02-03T10:05:53.118Z,11.75
2023-02-03T10:08:41.350Z,11.75
2023-02-03T10:11:35.176Z,11.74
2023-02-03T10:14:32.874Z,11.76
2023-02-03T10:17:17.559Z,11.78
2023-02-03T10:19:48.087Z,11.80
2023-02-03T10:22:21.372Z,11.83
2023-02-03T10:24:53.666Z,11.87
2023-02-03T10:27:22.731Z,11.89
2023-02-03T10:30:03.592Z,11.91
2023-02-03T10:32:30.360Z,11.95
2023-02-03T10:34:56.868Z,11.99
2023-02-03T10:37:27.076Z,12.02
2023-02-03T10:39:57.195Z,12.05
2023-02-03T10:42:23.687Z,12.07
2023-02-03T10:44:57.664Z,12.14
2023-02-03T10:47:39.054Z,12.18
2023-02-03T10:50:35.611Z,12.22
2023-02-03T10:53:36.245Z,12.27
2023-02-03T10:56:09.544Z,12.29
2023-02-03T10:58:37.799Z,12.29
2023-02-03T11:01:13.292Z,12.28
2023-02-03T11:03:43.864Z,12.27
2023-02-03T11:06:16.682Z,12.25
2023-02-03T11:08:48.222Z,12.24
2023-02-03T11:11:27.671Z,12.22
2023-02-03T11:14:17.240Z,12.19
2023-02-03T11:16:44.603Z,12.15
2023-02-03T11:19:13.803Z,12.10
2023-02-03T11:21:45.091Z,12.07
2023-02-03T11:24:30.636Z,12.03
2023-02-03T11:27:06.812Z,12.01
2023-02-03T11:29:38.732Z,11.98
2023-02-03T11:32:16.675Z,11.94
2023-02-03T11:35:13.109Z,11.90
2023-02-03T11:37:42.125Z,11.85
2023-02-03T11:40:08.413Z,11.79
2023-02-03T11:42:36.609Z,11.76
2023-02-03T11:45:24.139Z,11.72
2023-02-03T11:48:13.059Z,11.70
2023-02-03T11:50:48.444Z,11.67
2023-02-03T11:53:51.240Z,11.66
2023-02-03T11:56:50.737Z,11.65
2023-02-03T11:59:26.588Z,11.67
2023-02-03T12:02:17.287Z,11.67
2023-02-03T12:05:09.209Z,11.68
2023-02-03T12:08:01.578Z,11.69
2023-02-03T12:10:48.144Z,11.72
2023-02-03T12:13:20.522Z,11.74
2023-02-03T12:15:58.927Z,11.76
2023-02-03T12:18:57.872Z,11.79
2023-02-03T12:21:44.270Z,11.85
2023-02-03T12:24:35.797Z,11.89
2023-02-03T12:27:19.236Z,11.92
2023-02-03T12:30:01.931Z,11.92
2023-02-03T12:32:40.148Z,11.93
2023-02-03T12:35:27.614Z,11.96
2023-02-03T12:38:36.909Z,12.01
2023-02-03T12:41:11.767Z,12.06
2023-02-03T12:43:50.533Z,12.10
2023-02-03T12:46:22.275Z,12.15
2023-02-03T12:48:59.721Z,12.21
2023-02-03T12:51:41.214Z,12.23
2023-02-03T12:54:25.450Z,12.26
2023-02-03T12:56:55.999Z,12.29
2023-02-03T12:59:34.682Z,12.32
2023-02-03T13:02:17.764Z,12.33
2023-02-03T13:04:52.535Z,12.33
2023-02-03T13:07:47.150Z,12.35
2023-02-03T13:10:48.529Z,12.36
2023-02-03T13:13:21.932Z,12.38
2023-02-03T13:15:52.643Z,12.37
2023-02-03T13:18:22.227Z,12.36
2023-02-03T13:20:48.665Z,12.37
2023-02-03T13:23:16.008Z,12.36
2023-02-03T13:25:42.315Z,12.34
2023-02-03T13:28:34.310Z,12.34
2023-02-03T13:31:38.375Z,12.31
2023-02-03T13:34:37.068Z,12.28
2023-02-03T13:37:21.572Z,12.24
2023-02-03T13:39:54.235Z,12.21
2023-02-03T13:42:23.573Z,12.17
2023-02-03T13:45:14.615Z,12.15
2023-02-03T13:47:47.129Z,12.14
2023-02-03T13:50:22.507Z,12.13
2023-02-03T13:53:00.118Z,12.12
2023-02-03T13:55:35.691Z,12.13
2023-02-03T13:58:04.203Z,12.11
2023-02-03T14:00:45.653Z,12.10
2023-02-03T14:03:18.513Z,12.11
2023-02-03T14:05:49.517Z,12.09
2023-02-03T14:08:24.976Z,12.07
2023-02-03T14:11:29.313Z,12.05
2023-02-03T14:14:15.926Z,12.01
2023-02-03T14:16:55.140Z,12.01
2023-02-03T14:19:21.636Z,11.99
2023-02-03T14:22:00.045Z,11.97
2023-02-03T14:24:37.660Z,11.95
2023-02-03T14:27:06.436Z,11.93
2023-02-03T14:29:36.008Z,11.92
2023-02-03T14:32:05.604Z,11.91
2023-02-03T14:34:41.366Z,11.90
2023-02-03T14:37:16.716Z,11.86
2023-02-03T14:40:11.307Z,11.85
2023-02-03T14:43:08.605Z,11.81
2023-02-03T14:46:23.176Z,11.76
2023-02-03T14:49:03.951Z,11.72
2023-02-03T14:51:51.792Z,11.67
2023-02-03T14:54:31.261Z,11.62
2023-02-03T14:57:25.369Z,11.59
2023-02-03T14:59:56.347Z,11.54
2023-02-03T15:02:26.459Z,11.51
2023-02-03T15:05:15.624Z,11.45
2023-02-03T15:07:50.255Z,11.41
2023-02-03T15:10:18.023Z,11.39
2023-02-03T15:12:50.280Z,11.34
2023-02-03T15:15:23.492Z,11.32
2023-02-03T15:17:52.040Z,11.30
2023-02-03T15:20:41.445Z,11.27
2023-02-03T15:23:22.973Z,11.27
2023-02-03T15:25:57.319Z,11.25
2023-02-03T15:28:25.797Z,11.22
2023-02-03T15:31:06.611Z,11.23
2023-02-03T15:33:36.427Z,11.21
2023-02-03T15:36:15.554Z,11.19
2023-02-03T15:38:48.571Z,11.17
2023-02-03T15:41:23.640Z,11.12
2023-02-03T15:43:55.491Z,11.11
2023-02-03T15:46:35.420Z,11.08
2023-02-03T15:49:08.691Z,11.05
2023-02-03T15:51:49.521Z,11.01
2023-02-03T15:54:30.951Z,10.96
2023-02-03T15:57:05.522Z,10.94
2023-02-03T15:59:37.844Z,10.91
2023-02-03T16:02:15.171Z,10.88
2023-02-03T16:04:41.845Z,10.84
2023-02-03T16:07:22.503Z,10.83
2023-02-03T16:09:53.448Z,10.79
2023-02-03T16:12:28.422Z,10.78
2023-02-03T16:14:57.292Z,10.76
2023-02-03T16:17:33.919Z,10.74
2023-02-03T16:20:12.528Z,10.73
2023-02-03T16:22:43.322Z,10.71
2023-02-03T16:25:25.068Z,10.69
2023-02-03T16:28:39.613Z,10.67
2023-02-03T16:31:33.939Z,10.63
2023-02-03T16:34:20.746Z,10.61
2023-02-03T16:37:06.070Z,10.55
2023-02-03T16:39:51.048Z,10.52
2023-02-03T16:42:38.303Z,10.46
2023-02-03T16:45:32.476Z,10.43
2023-02-03T16:48:17.828Z,10.37
2023-02-03T16:50:54.168Z,10.32
2023-02-03T16:53:26.330Z,10.27
2023-02-03T16:55:55.343Z,10.23
2023-02-03T16:58:22.041Z,10.17
2023-02-03T17:00:51.382Z,10.11
2023-02-03T17:03:28.276Z,10.08
2023-02-03T17:05:56.274Z,10.03
2023-02-03T17:08:25.037Z,10.00
2023-02-03T17:10:51.872Z,9.96
2023-02-03T17:13:20.606Z,9.91
2023-02-03T17:15:49.877Z,9.87
2023-02-03T17:18:16.454Z,9.83
2023-02-03T17:20:43.942Z,9.79
2023-02-03T17:23:10.865Z,9.75
2023-02-03T17:25:38.841Z,9.72
2023-02-03T17:28:07.705Z,9.68
2023-02-03T17:30:35.256Z,9.63
2023-02-03T17:33:03.451Z,9.61
2023-02-03T17:35:30.199Z,9.57
2023-02-03T17:37:56.954Z,9.54
2023-02-03T17:54:06.567Z,9.37
2023-02-03T17:56:35.432Z,9.36
2023-02-03T17:59:03.816Z,9.34
2023-02-03T18:01:31.708Z,9.32
2023-02-03T18:04:01.060Z,9.31
2023-02-03T18:06:29.724Z,9.31
2023-02-03T18:09:01.279Z,9.31
2023-02-03T18:11:28.920Z,9.32
2023-02-03T18:13:55.978Z,9.33
2023-02-03T18:16:29.344Z,9.36
2023-02-03T18:18:56.631Z,9.36
2023-02-03T18:21:25.523Z,9.37
2023-02-03T18:23:54.200Z,9.38
2023-02-03T18:26:20.789Z,9.42
2023-02-03T18:28:50.588Z,9.43
2023-02-03T18:31:17.658Z,9.45
2023-02-03T18:33:46.493Z,9.47
2023-02-03T18:36:13.883Z,9.48
2023-02-03T18:38:41.986Z,9.52
2023-02-03T18:41:14.407Z,9.54
2023-02-03T18:43:49.052Z,9.58
2023-02-03T18:46:22.241Z,9.58
2023-02-03T18:48:48.744Z,9.58
2023-02-03T18:51:18.229Z,9.60
2023-02-03T18:53:46.690Z,9.59
2023-02-03T18:56:17.665Z,9.58
2023-02-03T18:58:44.316Z,9.55
2023-02-03T19:01:20.568Z,9.55
2023-02-03T19:03:46.918Z,9.53
2023-02-03T19:06:13.377Z,9.51
2023-02-03T19:08:40.814Z,9.47
2023-02-03T19:11:07.864Z,9.45
2023-02-03T19:13:34.421Z,9.43
2023-02-03T19:16:02.254Z,9.40
2023-02-03T19:18:30.543Z,9.39
2023-02-03T19:20:56.964Z,9.38
2023-02-03T19:23:24.045Z,9.36
2023-02-03T19:25:52.087Z,9.36
2023-02-03T19:28:30.004Z,9.36
2023-02-03T19:31:07.848Z,9.37
2023-02-03T19:33:35.655Z,9.38
2023-02-03T19:36:02.230Z,9.37
2023-02-03T19:38:28.639Z,9.36
2023-02-03T19:40:55.064Z,9.34
2023-02-03T19:43:21.407Z,9.33
2023-02-03T19:45:47.799Z,9.30
2023-02-03T19:48:14.128Z,9.26
2023-02-03T19:50:45.873Z,9.25
2023-02-03T19:53:16.642Z,9.25
2023-02-03T19:55:43.893Z,9.25
2023-02-03T19:58:10.382Z,9.25
2023-02-03T20:00:36.907Z,9.28
2023-02-03T20:03:03.772Z,9.29
2023-02-03T20:05:30.337Z,9.32
2023-02-03T20:07:56.687Z,9.33
2023-02-03T20:10:26.201Z,9.35
2023-02-03T20:12:54.242Z,9.37
2023-02-03T20:15:21.547Z,9.39
2023-02-03T20:17:47.949Z,9.40
2023-02-03T20:20:16.364Z,9.40
2023-02-03T20:22:42.722Z,9.39
2023-02-03T20:25:09.183Z,9.40
2023-02-03T20:27:35.805Z,9.39
2023-02-03T20:30:02.979Z,9.38
2023-02-03T20:32:29.514Z,9.38
2023-02-03T20:34:56.004Z,9.38
2023-02-03T20:37:22.345Z,9.37
2023-02-03T20:39:48.752Z,9.38
2023-02-03T20:42:17.730Z,9.37
2023-02-03T20:44:44.888Z,9.36
2023-02-03T20:47:21.484Z,9.36
2023-02-03T20:49:49.452Z,9.36
2023-02-03T20:52:20.917Z,9.35
2023-02-03T20:54:47.924Z,9.33
2023-02-03T20:57:17.064Z,9.32
2023-02-03T20:59:44.902Z,9.29
2023-02-03T21:02:33.610Z,9.28
2023-02-03T21:05:02.168Z,9.26
2023-02-03T21:07:30.675Z,9.22
2023-02-03T21:09:58.771Z,9.21
2023-02-03T21:12:25.211Z,9.18
2023-02-03T21:14:53.652Z,9.18
2023-02-03T21:17:25.752Z,9.19
2023-02-03T21:19:53.579Z,9.17
2023-02-03T21:22:23.730Z,9.16
2023-02-03T21:24:56.386Z,9.14
2023-02-03T21:27:24.232Z,9.11
2023-02-03T21:29:55.520Z,9.07
2023-02-03T21:32:22.989Z,9.04
2023-02-03T21:34:49.865Z,9.00
2023-02-03T21:37:41.517Z,8.97
2023-02-03T21:40:20.765Z,8.92
2023-02-03T21:42:47.619Z,8.87
2023-02-03T21:45:17.035Z,8.83
2023-02-03T21:47:45.048Z,8.79
2023-02-03T21:50:31.483Z,8.74
2023-02-03T21:53:10.458Z,8.71
2023-02-03T21:55:39.026Z,8.67
2023-02-03T21:58:31.318Z,8.65
2023-02-03T22:01:06.063Z,8.64
2023-02-03T22:03:40.713Z,8.65
2023-02-03T22:06:16.370Z,8.64
2023-02-03T22:08:50.750Z,8.65
2023-02-03T22:11:18.693Z,8.68
2023-02-03T22:13:45.554Z,8.69
2023-02-03T22:16:14.155Z,8.72
2023-02-03T22:18:41.304Z,8.74
2023-02-03T22:21:07.836Z,8.76
2023-02-03T22:23:34.215Z,8.78
2023-02-03T22:26:01.052Z,8.79
2023-02-03T22:28:27.404Z,8.78
2023-02-03T22:30:53.905Z,8.78
2023-02-03T22:33:20.299Z,8.77
2023-02-03T22:35:46.688Z,8.75
2023-02-03T22:38:13.068Z,8.72
2023-02-03T22:40:39.411Z,8.69
2023-02-03T22:43:05.782Z,8.66
2023-02-03T22:45:32.137Z,8.63
2023-02-03T22:48:00.211Z,8.60
2023-02-03T22:50:35.692Z,8.57
2023-02-03T22:53:07.133Z,8.51
2023-02-03T22:55:33.466Z,8.50
2023-02-03T22:57:59.868Z,8.45
2023-02-03T23:00:26.578Z,8.41
2023-02-03T23:02:53.317Z,8.40
2023-02-03T23:05:20.391Z,8.35
2023-02-03T23:07:47.286Z,8.34
2023-02-03T23:10:25.016Z,8.33
2023-02-03T23:12:52.060Z,8.31
2023-02-03T23:15:18.598Z,8.30
2023-02-03T23:17:45.395Z,8.28
2023-02-03T23:20:14.176Z,8.28
2023-02-03T23:22:40.672Z,8.26
2023-02-03T23:25:07.443Z,8.25
2023-02-03T23:27:33.833Z,8.24
2023-02-03T23:30:00.232Z,8.22
2023-02-03T23:32:26.585Z,8.23
2023-02-03T23:35:11.342Z,8.23
2023-02-03T23:37:37.683Z,8.24
2023-02-03T23:40:05.152Z,8.22
2023-02-03T23:42:31.579Z,8.24
2023-02-03T23:44:59.039Z,8.24
2023-02-03T23:47:25.397Z,8.24
2023-02-03T23:49:51.801Z,8.25
2023-02-03T23:52:18.159Z,8.25
2023-02-03T23:54:44.557Z,8.26
2023-02-03T23:57:11.015Z,8.27
2023-02-03T23:59:37.649Z,8.28
